createdAt,value
2023-03-28T00:00:02.121Z,48.83
2023-03-28T00:02:38.615Z,49.39
2023-03-28T00:05:05.361Z,49.16
2023-03-28T00:07:34.524Z,49.46
2023-03-28T00:10:01.872Z,49.62
2023-03-28T00:12:28.584Z,50.05
2023-03-28T00:14:57.596Z,49.74
2023-03-28T00:17:24.645Z,50.04
2023-03-28T00:19:56.251Z,51.29
2023-03-28T00:22:25.153Z,50.74
2023-03-28T00:24:53.977Z,52.28
2023-03-28T00:27:20.583Z,51.33
2023-03-28T00:29:47.247Z,51.88
2023-03-28T00:32:13.804Z,51.30
2023-03-28T00:34:42.912Z,51.79
2023-03-28T00:37:10.767Z,51.75
2023-03-28T00:39:37.686Z,51.46
2023-03-28T00:42:04.567Z,51.74
2023-03-28T00:44:45.355Z,51.99
2023-03-28T00:47:30.990Z,51.89
2023-03-28T00:50:03.040Z,52.03
2023-03-28T00:52:34.574Z,52.04
2023-03-28T00:55:01.176Z,52.05
2023-03-28T00:57:30.308Z,52.21
2023-03-28T00:59:56.968Z,51.57
2023-03-28T01:02:24.059Z,52.53
2023-03-28T01:04:55.298Z,51.99
2023-03-28T01:07:22.789Z,52.71
2023-03-28T01:09:51.641Z,53.11
2023-03-28T01:12:18.368Z,53.16
2023-03-28T01:14:47.789Z,53.34
2023-03-28T01:17:16.183Z,52.14
2023-03-28T01:19:47.971Z,52.26
2023-03-28T01:22:33.301Z,52.54
2023-03-28T01:25:16.683Z,52.19
2023-03-28T01:28:05.633Z,52.85
2023-03-28T01:30:49.195Z,52.81
2023-03-28T01:33:51.025Z,53.57
2023-03-28T01:36:33.987Z,53.14
2023-03-28T01:39:24.455Z,53.36
2023-03-28T01:41:56.769Z,53.77
2023-03-28T01:44:34.231Z,53.43
2023-03-28T01:47:10.003Z,54.40
2023-03-28T01:49:46.270Z,54.14
2023-03-28T01:52:28.344Z,54.32
2023-03-28T01:54:55.664Z,55.28
2023-03-28T01:57:27.309Z,55.32
2023-03-28T02:00:04.135Z,55.19
2023-03-28T02:02:39.161Z,55.37
2023-03-28T02:05:23.851Z,56.42
2023-03-28T02:07:54.663Z,56.42
2023-03-28T02:10:32.748Z,55.88
2023-03-28T02:13:04.175Z,56.68
2023-03-28T02:15:48.140Z,57.00
2023-03-28T02:18:39.407Z,57.14
2023-03-28T02:21:50.822Z,57.67
2023-03-28T02:24:52.204Z,57.85
2023-03-28T02:27:39.550Z,58.52
2023-03-28T02:30:29.084Z,58.64
2023-03-28T02:33:01.678Z,58.84
2023-03-28T02:35:30.894Z,59.10
2023-03-28T02:38:07.037Z,59.22
2023-03-28T02:40:36.735Z,59.19
2023-03-28T02:43:05.858Z,59.83
2023-03-28T02:45:44.045Z,59.53
2023-03-28T02:48:13.809Z,59.83
2023-03-28T02:50:49.637Z,60.33
2023-03-28T02:53:27.244Z,59.78
2023-03-28T02:56:04.992Z,59.89
2023-03-28T02:58:50.229Z,60.21
2023-03-28T03:01:18.243Z,60.37
2023-03-28T03:03:45.906Z,61.00
2023-03-28T03:06:14.953Z,61.03
2023-03-28T03:08:41.497Z,61.80
2023-03-28T03:11:08.184Z,61.53
2023-03-28T03:13:34.895Z,61.88
2023-03-28T03:16:04.118Z,62.47
2023-03-28T03:18:32.479Z,63.18
2023-03-28T03:21:02.090Z,63.11
2023-03-28T03:23:31.255Z,62.85
2023-03-28T03:26:02.941Z,62.91
2023-03-28T03:28:38.018Z,63.43
2023-03-28T03:31:06.863Z,63.81
2023-03-28T03:33:55.005Z,63.78
2023-03-28T03:36:27.293Z,64.04
2023-03-28T03:38:54.114Z,64.60
2023-03-28T03:41:22.677Z,64.61
2023-03-28T03:43:49.354Z,64.52
2023-03-28T03:46:16.065Z,64.24
2023-03-28T03:48:49.450Z,64.67
2023-03-28T03:51:17.447Z,64.65
2023-03-28T03:53:50.651Z,64.86
2023-03-28T03:56:21.241Z,64.52
2023-03-28T03:58:58.671Z,64.30
2023-03-28T04:01:35.649Z,64.61
2023-03-28T04:04:19.250Z,64.68
2023-03-28T04:07:04.573Z,64.79
2023-03-28T04:09:34.134Z,64.59
2023-03-28T04:12:07.773Z,64.45
2023-03-28T04:14:45.104Z,64.51
2023-03-28T04:17:44.501Z,64.19
2023-03-28T04:20:17.758Z,64.80
2023-03-28T04:23:06.012Z,65.12
2023-03-28T04:25:34.199Z,65.36
2023-03-28T04:28:11.810Z,65.32
2023-03-28T04:30:53.370Z,65.37
2023-03-28T04:33:40.127Z,65.73
2023-03-28T04:36:09.552Z,65.49
2023-03-28T04:38:36.524Z,65.56
2023-03-28T04:41:35.185Z,65.24
2023-03-28T04:44:02.064Z,65.15
2023-03-28T04:46:32.466Z,65.35
2023-03-28T04:49:11.038Z,65.17
2023-03-28T04:51:37.761Z,64.46
2023-03-28T04:54:04.504Z,64.73
2023-03-28T04:56:48.342Z,63.74
2023-03-28T04:59:21.612Z,63.67
2023-03-28T05:01:54.273Z,63.50
2023-03-28T05:04:40.705Z,63.12
2023-03-28T05:07:08.703Z,63.16
2023-03-28T05:09:39.934Z,62.91
2023-03-28T05:12:07.572Z,63.09
2023-03-28T05:14:50.430Z,63.15
2023-03-28T05:17:17.327Z,62.96
2023-03-28T05:20:09.032Z,62.75
2023-03-28T05:22:47.479Z,63.06
2023-03-28T05:25:14.142Z,62.27
2023-03-28T05:27:41.207Z,61.98
2023-03-28T05:30:08.130Z,62.13
2023-03-28T05:32:37.709Z,62.52
2023-03-28T05:35:05.840Z,62.65
2023-03-28T05:37:43.552Z,62.21
2023-03-28T05:40:12.288Z,62.19
2023-03-28T05:42:41.163Z,62.04
2023-03-28T05:45:16.419Z,61.71
2023-03-28T05:47:56.958Z,62.13
2023-03-28T05:50:24.445Z,61.72
2023-03-28T05:52:58.458Z,61.54
2023-03-28T05:55:25.262Z,61.37
2023-03-28T05:57:52.141Z,62.12
2023-03-28T06:00:20.422Z,61.93
2023-03-28T06:02:51.997Z,61.83
2023-03-28T06:05:22.632Z,62.13
2023-03-28T06:07:49.641Z,61.74
2023-03-28T06:10:18.160Z,61.44
2023-03-28T06:12:56.256Z,61.62
2023-03-28T06:15:23.710Z,60.88
2023-03-28T06:17:52.651Z,60.24
2023-03-28T06:20:21.769Z,60.44
2023-03-28T06:22:53.167Z,59.78
2023-03-28T06:25:19.933Z,59.65
2023-03-28T06:27:46.552Z,59.86
2023-03-28T06:30:13.670Z,58.81
2023-03-28T06:32:47.532Z,59.28
2023-03-28T06:35:14.916Z,58.18
2023-03-28T06:37:41.594Z,58.71
2023-03-28T06:40:09.121Z,58.46
2023-03-28T06:42:38.214Z,57.76
2023-03-28T06:45:36.911Z,58.40
2023-03-28T06:48:07.634Z,58.27
2023-03-28T06:50:52.784Z,58.21
2023-03-28T06:53:21.136Z,58.39
2023-03-28T06:55:49.571Z,57.86
2023-03-28T06:58:18.952Z,57.67
2023-03-28T07:00:53.939Z,58.25
2023-03-28T07:03:43.738Z,57.11
2023-03-28T07:06:12.958Z,57.39
2023-03-28T07:08:39.803Z,57.57
2023-03-28T07:11:06.848Z,56.97
2023-03-28T07:13:33.600Z,57.15
2023-03-28T07:16:11.375Z,56.24
2023-03-28T07:18:38.508Z,55.79
2023-03-28T07:21:09.134Z,56.41
2023-03-28T07:23:36.337Z,56.15
2023-03-28T07:26:03.122Z,56.70
2023-03-28T07:28:29.969Z,55.74
2023-03-28T07:30:56.676Z,54.89
2023-03-28T07:33:30.877Z,55.67
2023-03-28T07:36:10.271Z,54.46
2023-03-28T07:38:37.172Z,54.45
2023-03-28T07:41:04.062Z,54.37
2023-03-28T07:43:31.107Z,54.34
2023-03-28T07:46:06.498Z,54.20
2023-03-28T07:48:36.276Z,54.52
2023-03-28T07:51:04.140Z,55.32
2023-03-28T07:53:33.133Z,55.10
2023-03-28T07:56:00.345Z,55.56
2023-03-28T07:58:43.140Z,53.76
2023-03-28T08:01:12.920Z,53.72
2023-03-28T08:03:46.409Z,53.04
2023-03-28T08:06:31.106Z,53.38
2023-03-28T08:09:01.825Z,52.63
2023-03-28T08:11:35.212Z,50.95
2023-03-28T08:14:04.706Z,51.24
2023-03-28T08:16:36.888Z,50.71
2023-03-28T08:19:10.582Z,51.79
2023-03-28T08:22:02.653Z,52.45
2023-03-28T08:24:36.414Z,50.67
2023-03-28T08:27:15.774Z,51.10
2023-03-28T08:29:47.678Z,50.46
2023-03-28T08:32:14.500Z,49.73
2023-03-28T08:34:43.500Z,50.46
2023-03-28T08:37:21.937Z,52.57
2023-03-28T08:39:50.002Z,49.94
2023-03-28T08:42:17.844Z,48.82
2023-03-28T08:45:05.730Z,48.79
2023-03-28T08:47:32.739Z,48.25
2023-03-28T08:49:59.586Z,49.01
2023-03-28T08:52:26.430Z,49.37
2023-03-28T08:54:56.293Z,47.72
2023-03-28T08:57:30.641Z,48.15
2023-03-28T09:00:09.185Z,48.09
2023-03-28T09:02:36.326Z,49.44
2023-03-28T09:05:22.488Z,46.54
2023-03-28T09:07:59.923Z,46.09
2023-03-28T09:10:32.911Z,46.91
2023-03-28T09:13:22.517Z,46.50
2023-03-28T09:15:52.280Z,45.42
2023-03-28T09:18:23.883Z,45.10
2023-03-28T09:20:54.831Z,42.46
2023-03-28T09:23:39.158Z,40.97
2023-03-28T09:26:36.367Z,42.63
2023-03-28T09:29:12.157Z,41.42
2023-03-28T09:31:45.961Z,40.48
2023-03-28T09:34:23.067Z,39.44
2023-03-28T09:36:51.828Z,38.96
2023-03-28T09:39:40.729Z,40.68
2023-03-28T09:42:08.021Z,40.99
2023-03-28T09:44:57.594Z,36.41
2023-03-28T09:48:04.055Z,36.31
2023-03-28T09:50:38.568Z,37.82
2023-03-28T09:53:07.639Z,38.29
2023-03-28T09:55:35.602Z,38.40
2023-03-28T09:58:06.824Z,39.55
2023-03-28T10:00:50.500Z,38.71
2023-03-28T10:03:36.243Z,38.83
2023-03-28T10:06:19.886Z,37.29
2023-03-28T10:08:52.362Z,38.04
2023-03-28T10:11:27.441Z,38.86
2023-03-28T10:13:57.604Z,39.05
2023-03-28T10:16:28.070Z,37.64
2023-03-28T10:19:15.877Z,37.32
2023-03-28T10:22:41.364Z,38.26
2023-03-28T10:25:08.815Z,40.81
2023-03-28T10:27:39.088Z,39.77
2023-03-28T10:30:09.610Z,39.32
2023-03-28T10:32:41.110Z,39.53
2023-03-28T10:35:31.117Z,37.16
2023-03-28T10:38:24.916Z,37.24
2023-03-28T10:41:12.810Z,36.33
2023-03-28T10:44:00.592Z,36.95
2023-03-28T10:46:41.184Z,37.17
2023-03-28T10:49:17.434Z,37.81
2023-03-28T10:51:51.357Z,37.13
2023-03-28T10:54:36.792Z,36.55
2023-03-28T10:57:06.894Z,37.04
2023-03-28T10:59:38.076Z,37.23
2023-03-28T11:02:24.931Z,36.16
2023-03-28T11:04:52.174Z,36.17
2023-03-28T11:07:43.569Z,32.78
2023-03-28T11:10:40.497Z,34.23
2023-03-28T11:13:26.065Z,33.13
2023-03-28T11:16:11.628Z,33.09
2023-03-28T11:18:57.305Z,33.93
2023-03-28T11:21:33.316Z,34.09
2023-03-28T11:24:05.868Z,33.94
2023-03-28T11:26:49.572Z,35.18
2023-03-28T11:29:19.190Z,32.99
2023-03-28T11:31:47.059Z,32.63
2023-03-28T11:34:15.431Z,33.24
2023-03-28T11:36:42.244Z,31.65
2023-03-28T11:39:22.917Z,32.11
2023-03-28T11:41:54.042Z,30.26
2023-03-28T11:44:33.763Z,30.95
2023-03-28T11:47:06.797Z,31.31
2023-03-28T11:49:34.671Z,29.65
2023-03-28T11:52:12.476Z,29.57
2023-03-28T11:54:44.632Z,28.22
2023-03-28T11:57:31.715Z,29.36
2023-03-28T12:00:06.954Z,28.60
2023-03-28T12:02:44.423Z,29.11
2023-03-28T12:05:47.748Z,28.17
2023-03-28T12:08:22.645Z,27.07
2023-03-28T12:10:52.354Z,25.34
2023-03-28T12:13:47.486Z,24.67
2023-03-28T12:16:21.401Z,25.22
2023-03-28T12:18:51.565Z,24.68
2023-03-28T12:21:42.682Z,24.77
2023-03-28T12:24:27.815Z,25.53
2023-03-28T12:27:12.907Z,24.42
2023-03-28T12:30:00.615Z,24.02
2023-03-28T12:32:34.804Z,25.13
2023-03-28T12:35:12.306Z,26.44
2023-03-28T12:38:02.134Z,25.31
2023-03-28T12:40:42.798Z,23.32
2023-03-28T12:43:10.764Z,22.34
2023-03-28T12:45:41.569Z,23.42
2023-03-28T12:48:15.750Z,22.50
2023-03-28T12:50:45.568Z,21.30
2023-03-28T12:53:13.030Z,22.33
2023-03-28T12:55:45.800Z,21.92
2023-03-28T12:58:22.476Z,22.86
2023-03-28T13:00:58.043Z,22.04
2023-03-28T13:04:03.842Z,22.09
2023-03-28T13:06:48.917Z,23.60
2023-03-28T13:09:34.021Z,23.89
2023-03-28T13:12:03.528Z,25.29
2023-03-28T13:14:32.383Z,24.15
2023-03-28T13:17:01.743Z,25.44
2023-03-28T13:19:43.835Z,25.08
2023-03-28T13:22:40.451Z,26.51
2023-03-28T13:25:21.089Z,27.04
2023-03-28T13:27:51.360Z,26.10
2023-03-28T13:30:27.701Z,26.09
2023-03-28T13:32:57.509Z,24.83
2023-03-28T13:35:35.636Z,32.00
2023-03-28T13:38:16.208Z,36.15
2023-03-28T13:41:06.350Z,37.14
2023-03-28T13:43:35.030Z,35.20
2023-03-28T13:46:21.410Z,34.12
2023-03-28T13:48:54.169Z,32.50
2023-03-28T13:51:24.703Z,31.11
2023-03-28T13:53:53.752Z,30.06
2023-03-28T13:56:24.958Z,30.96
2023-03-28T13:58:55.535Z,30.18
2023-03-28T14:01:24.677Z,30.45
2023-03-28T14:03:56.380Z,30.12
2023-03-28T14:06:27.369Z,27.47
2023-03-28T14:09:02.577Z,26.88
2023-03-28T14:11:30.605Z,25.83
2023-03-28T14:14:36.124Z,24.87
2023-03-28T14:17:06.904Z,24.00
2023-03-28T14:19:38.237Z,25.18
2023-03-28T14:22:08.684Z,25.62
2023-03-28T14:24:37.646Z,25.56
2023-03-28T14:27:09.784Z,25.02
2023-03-28T14:29:51.126Z,25.73
2023-03-28T14:32:21.974Z,24.91
2023-03-28T14:34:53.884Z,27.30
2023-03-28T14:37:22.571Z,26.69
2023-03-28T14:39:50.132Z,24.33
2023-03-28T14:42:20.093Z,23.74
2023-03-28T14:44:47.976Z,21.98
2023-03-28T14:47:21.568Z,21.64
2023-03-28T14:49:48.262Z,21.06
2023-03-28T14:52:18.777Z,22.36
2023-03-28T14:54:46.749Z,21.75
2023-03-28T14:57:16.760Z,19.54
2023-03-28T14:59:48.106Z,20.89
2023-03-28T15:02:20.834Z,20.10
2023-03-28T15:04:47.479Z,21.59
2023-03-28T15:07:26.496Z,20.98
2023-03-28T15:10:15.737Z,21.84
2023-03-28T15:12:45.373Z,22.54
2023-03-28T15:15:18.196Z,23.33
2023-03-28T15:17:45.034Z,24.16
2023-03-28T15:20:14.303Z,23.92
2023-03-28T15:22:45.370Z,24.16
2023-03-28T15:25:12.956Z,22.16
2023-03-28T15:27:39.732Z,21.80
2023-03-28T15:30:18.815Z,20.80
2023-03-28T15:32:45.809Z,20.06
2023-03-28T15:35:31.383Z,19.93
2023-03-28T15:38:08.573Z,20.18
2023-03-28T15:40:39.676Z,20.58
2023-03-28T15:43:25.900Z,18.93
2023-03-28T15:46:00.939Z,20.97
2023-03-28T15:48:28.773Z,20.94
2023-03-28T15:50:56.384Z,21.70
2023-03-28T15:53:26.031Z,22.53
2023-03-28T15:55:52.687Z,23.20
2023-03-28T15:58:20.428Z,23.16
2023-03-28T16:00:49.093Z,22.04
2023-03-28T16:03:19.762Z,22.68
2023-03-28T16:06:09.818Z,22.35
2023-03-28T16:08:39.265Z,23.61
2023-03-28T16:11:06.967Z,24.39
2023-03-28T16:13:36.695Z,25.73
2023-03-28T16:16:32.686Z,25.81
2023-03-28T16:19:24.581Z,25.35
2023-03-28T16:21:53.726Z,24.29
2023-03-28T16:24:20.639Z,25.15
2023-03-28T16:26:51.789Z,25.99
2023-03-28T16:29:18.457Z,26.96
2023-03-28T16:31:45.211Z,27.53
2023-03-28T16:34:11.974Z,28.02
2023-03-28T16:36:38.762Z,27.57
2023-03-28T16:39:06.359Z,28.38
2023-03-28T16:41:32.932Z,28.77
2023-03-28T16:43:59.779Z,28.83
2023-03-28T16:46:26.556Z,29.32
2023-03-28T16:48:53.281Z,30.17
2023-03-28T16:51:20.010Z,30.17
2023-03-28T16:53:46.805Z,31.34
2023-03-28T16:56:15.087Z,32.38
2023-03-28T16:58:44.236Z,32.73
2023-03-28T17:01:18.941Z,34.02
2023-03-28T17:03:46.178Z,34.67
2023-03-28T17:06:16.292Z,35.04
2023-03-28T17:08:43.607Z,37.39
2023-03-28T17:11:13.191Z,38.01
2023-03-28T17:13:40.550Z,38.82
2023-03-28T17:16:10.061Z,40.49
2023-03-28T17:18:37.005Z,40.18
2023-03-28T17:21:04.947Z,39.29
2023-03-28T17:23:32.898Z,39.29
2023-03-28T17:26:02.204Z,39.82
2023-03-28T17:28:31.203Z,40.08
2023-03-28T17:30:57.987Z,39.84
2023-03-28T17:33:29.695Z,39.50
2023-03-28T17:36:14.214Z,39.73
2023-03-28T17:38:40.984Z,39.02
2023-03-28T17:41:08.313Z,39.30
2023-03-28T17:43:34.899Z,39.46
2023-03-28T17:46:04.036Z,39.30
2023-03-28T17:48:31.408Z,39.26
2023-03-28T17:50:58.974Z,38.44
2023-03-28T17:53:25.591Z,38.95
2023-03-28T17:55:54.574Z,38.33
2023-03-28T17:58:21.238Z,38.42
2023-03-28T18:00:48.540Z,38.93
2023-03-28T18:03:17.782Z,38.16
2023-03-28T18:06:00.897Z,38.22
2023-03-28T18:08:31.038Z,38.43
2023-03-28T18:11:06.089Z,38.50
2023-03-28T18:13:35.489Z,38.60
2023-03-28T18:16:09.652Z,38.57
2023-03-28T18:18:38.823Z,38.41
2023-03-28T18:21:07.513Z,38.32
2023-03-28T18:23:38.799Z,38.08
2023-03-28T18:26:08.514Z,38.79
2023-03-28T18:28:37.740Z,39.08
2023-03-28T18:31:08.064Z,38.82
2023-03-28T18:33:36.882Z,39.17
2023-03-28T18:36:06.039Z,38.84
2023-03-28T18:38:39.161Z,38.54
2023-03-28T18:41:09.167Z,39.09
2023-03-28T18:43:37.349Z,39.21
2023-03-28T18:46:04.466Z,39.19
2023-03-28T18:48:34.498Z,39.03
2023-03-28T18:51:03.149Z,38.79
2023-03-28T18:53:30.015Z,38.58
2023-03-28T18:55:56.710Z,39.03
2023-03-28T18:58:24.087Z,39.04
2023-03-28T19:00:58.622Z,39.27
2023-03-28T19:03:26.964Z,39.37
2023-03-28T19:05:58.190Z,39.69
2023-03-28T19:08:28.130Z,40.32
2023-03-28T19:10:58.064Z,40.61
2023-03-28T19:13:25.445Z,40.67
2023-03-28T19:15:59.181Z,40.47
2023-03-28T19:18:28.740Z,40.01
2023-03-28T19:20:55.738Z,39.69
2023-03-28T19:23:25.931Z,39.92
2023-03-28T19:25:53.348Z,39.64
2023-03-28T19:28:20.120Z,40.04
2023-03-28T19:30:49.321Z,39.68
2023-03-28T19:33:16.301Z,40.07
2023-03-28T19:35:45.735Z,39.95
2023-03-28T19:38:12.428Z,40.55
2023-03-28T19:40:39.138Z,40.88
2023-03-28T19:43:08.141Z,41.31
2023-03-28T19:45:34.778Z,40.63
2023-03-28T19:48:01.569Z,40.99
2023-03-28T19:50:28.173Z,40.68
2023-03-28T19:52:54.765Z,41.16
2023-03-28T19:55:21.384Z,41.29
2023-03-28T19:57:47.981Z,40.94
2023-03-28T20:00:14.935Z,41.16
2023-03-28T20:02:41.917Z,41.40
2023-03-28T20:05:09.022Z,41.50
2023-03-28T20:07:38.965Z,41.59
2023-03-28T20:10:05.858Z,41.83
2023-03-28T20:12:34.581Z,41.56
2023-03-28T20:15:01.251Z,41.39
2023-03-28T20:17:27.849Z,41.46
2023-03-28T20:19:57.622Z,41.31
2023-03-28T20:22:25.888Z,41.61
2023-03-28T20:24:52.530Z,41.68
2023-03-28T20:27:19.598Z,41.77
2023-03-28T20:29:46.982Z,41.58
2023-03-28T20:32:18.111Z,41.25
2023-03-28T20:34:44.927Z,41.80
2023-03-28T20:37:14.157Z,41.68
2023-03-28T20:39:41.862Z,41.79
2023-03-28T20:42:09.126Z,41.48
2023-03-28T20:44:38.765Z,41.38
2023-03-28T20:47:06.584Z,41.18
2023-03-28T20:49:33.779Z,41.67
2023-03-28T20:52:02.930Z,42.20
2023-03-28T20:54:29.546Z,41.97
2023-03-28T20:56:56.275Z,41.56
2023-03-28T20:59:23.848Z,41.72
2023-03-28T21:01:51.615Z,41.40
2023-03-28T21:04:18.244Z,41.28
2023-03-28T21:06:45.346Z,41.10
2023-03-28T21:09:18.169Z,41.53
2023-03-28T21:11:45.151Z,41.55
2023-03-28T21:14:12.530Z,41.71
2023-03-28T21:16:39.181Z,41.76
2023-03-28T21:19:05.894Z,42.14
2023-03-28T21:21:34.438Z,42.26
2023-03-28T21:24:01.724Z,42.05
2023-03-28T21:26:29.293Z,42.41
2023-03-28T21:28:58.776Z,42.67
2023-03-28T21:31:26.615Z,43.04
2023-03-28T21:33:59.326Z,42.36
2023-03-28T21:36:26.801Z,42.40
2023-03-28T21:38:56.077Z,42.20
2023-03-28T21:41:27.138Z,42.44
2023-03-28T21:43:54.709Z,42.71
2023-03-28T21:46:24.016Z,42.66
2023-03-28T21:48:51.231Z,43.47
2023-03-28T21:51:18.031Z,43.25
2023-03-28T21:53:47.118Z,42.93
2023-03-28T21:56:16.810Z,43.03
2023-03-28T21:58:46.274Z,43.20
2023-03-28T22:01:13.870Z,43.04
2023-03-28T22:03:40.689Z,43.01
2023-03-28T22:06:12.434Z,42.80
2023-03-28T22:08:39.706Z,42.20
2023-03-28T22:11:14.512Z,42.21
2023-03-28T22:13:45.400Z,42.33
2023-03-28T22:16:15.554Z,42.63
2023-03-28T22:18:50.140Z,42.67
2023-03-28T22:21:19.790Z,42.34
2023-03-28T22:23:51.401Z,42.14
2023-03-28T22:26:18.174Z,42.38
2023-03-28T22:28:44.885Z,42.58
2023-03-28T22:31:12.008Z,42.45
2023-03-28T22:33:39.289Z,42.31
2023-03-28T22:36:06.368Z,42.36
2023-03-28T22:38:33.034Z,41.96
2023-03-28T22:41:06.051Z,42.01
2023-03-28T22:43:33.620Z,42.24
2023-03-28T22:46:00.187Z,42.09
2023-03-28T22:48:29.998Z,42.02
2023-03-28T22:50:57.170Z,42.06
2023-03-28T22:53:27.375Z,42.35
2023-03-28T22:55:54.812Z,42.54
2023-03-28T22:58:26.513Z,42.67
2023-03-28T23:00:56.255Z,42.25
2023-03-28T23:03:25.106Z,42.16
2023-03-28T23:05:51.889Z,41.68
2023-03-28T23:08:19.415Z,41.47
2023-03-28T23:10:46.661Z,42.16
2023-03-28T23:13:16.509Z,42.08
2023-03-28T23:15:45.861Z,41.88
2023-03-28T23:18:12.855Z,41.69
2023-03-28T23:20:39.653Z,41.78
2023-03-28T23:23:06.815Z,41.02
2023-03-28T23:25:37.027Z,41.38
2023-03-28T23:28:06.491Z,41.64
2023-03-28T23:30:35.660Z,41.55
2023-03-28T23:33:04.932Z,41.94
2023-03-28T23:35:31.625Z,41.88
2023-03-28T23:37:58.330Z,41.51
2023-03-28T23:40:30.485Z,41.75
2023-03-28T23:43:00.085Z,40.78
2023-03-28T23:45:26.782Z,40.98
2023-03-28T23:47:53.444Z,41.31
2023-03-28T23:50:20.120Z,41.42
2023-03-28T23:52:46.832Z,40.94
2023-03-28T23:55:16.319Z,41.17
2023-03-28T23:57:45.600Z,39.77
